sensor_id;sensor_type;location;lat;lon;timestamp;P1;durP1;ratioP1;P2;durP2;ratioP2
76121;SDS011;70471;53.200;6.080;2023-07-29T00:03:55;3.20;;;1.77;;
76121;SDS011;70471;53.200;6.080;2023-07-29T00:08:46;2.58;;;1.77;;
76121;SDS011;70471;53.200;6.080;2023-07-29T00:13:39;4.05;;;1.73;;
76121;SDS011;70471;53.200;6.080;2023-07-29T00:18:31;3.70;;;1.55;;
76121;SDS011;70471;53.200;6.080;2023-07-29T00:23:22;2.13;;;1.58;;
76121;SDS011;70471;53.200;6.080;2023-07-29T00:28:14;3.20;;;2.00;;
76121;SDS011;70471;53.200;6.080;2023-07-29T00:33:07;3.65;;;1.63;;
76121;SDS011;70471;53.200;6.080;2023-07-29T00:37:58;2.08;;;1.48;;
76121;SDS011;70471;53.200;6.080;2023-07-29T00:42:50;3.33;;;1.60;;
76121;SDS011;70471;53.200;6.080;2023-07-29T00:47:41;2.63;;;1.70;;
76121;SDS011;70471;53.200;6.080;2023-07-29T00:52:35;3.65;;;1.45;;
76121;SDS011;70471;53.200;6.080;2023-07-29T00:57:26;4.68;;;1.80;;
76121;SDS011;70471;53.200;6.080;2023-07-29T01:02:20;1.90;;;1.25;;
76121;SDS011;70471;53.200;6.080;2023-07-29T01:07:17;2.00;;;1.58;;
76121;SDS011;70471;53.200;6.080;2023-07-29T01:12:18;3.00;;;1.50;;
76121;SDS011;70471;53.200;6.080;2023-07-29T01:17:13;1.63;;;1.33;;
76121;SDS011;70471;53.200;6.080;2023-07-29T01:22:13;1.95;;;1.48;;
76121;SDS011;70471;53.200;6.080;2023-07-29T01:27:06;2.85;;;1.77;;
76121;SDS011;70471;53.200;6.080;2023-07-29T01:31:59;3.95;;;2.20;;
76121;SDS011;70471;53.200;6.080;2023-07-29T01:41:48;3.30;;;1.95;;
76121;SDS011;70471;53.200;6.080;2023-07-29T01:46:41;4.65;;;2.65;;
76121;SDS011;70471;53.200;6.080;2023-07-29T01:51:35;3.63;;;2.50;;
76121;SDS011;70471;53.200;6.080;2023-07-29T01:56:26;2.92;;;1.80;;
76121;SDS011;70471;53.200;6.080;2023-07-29T02:01:18;3.60;;;2.53;;
76121;SDS011;70471;53.200;6.080;2023-07-29T02:06:11;3.30;;;2.53;;
76121;SDS011;70471;53.200;6.080;2023-07-29T02:11:02;3.03;;;1.88;;
76121;SDS011;70471;53.200;6.080;2023-07-29T02:15:54;3.75;;;2.58;;
76121;SDS011;70471;53.200;6.080;2023-07-29T02:20:46;3.40;;;2.20;;
76121;SDS011;70471;53.200;6.080;2023-07-29T02:25:40;2.83;;;2.17;;
76121;SDS011;70471;53.200;6.080;2023-07-29T02:30:32;3.20;;;2.50;;
76121;SDS011;70471;53.200;6.080;2023-07-29T02:35:23;5.03;;;2.55;;
76121;SDS011;70471;53.200;6.080;2023-07-29T02:40:15;3.30;;;2.28;;
76121;SDS011;70471;53.200;6.080;2023-07-29T02:45:08;3.22;;;2.22;;
76121;SDS011;70471;53.200;6.080;2023-07-29T02:50:01;3.65;;;2.30;;
76121;SDS011;70471;53.200;6.080;2023-07-29T02:54:52;2.40;;;2.05;;
76121;SDS011;70471;53.200;6.080;2023-07-29T02:59:44;2.63;;;1.77;;
76121;SDS011;70471;53.200;6.080;2023-07-29T03:04:37;3.25;;;2.00;;
76121;SDS011;70471;53.200;6.080;2023-07-29T03:09:28;3.25;;;1.95;;
76121;SDS011;70471;53.200;6.080;2023-07-29T03:14:20;2.70;;;1.90;;
76121;SDS011;70471;53.200;6.080;2023-07-29T03:19:11;1.90;;;1.55;;
76121;SDS011;70471;53.200;6.080;2023-07-29T03:24:04;2.25;;;0.98;;
76121;SDS011;70471;53.200;6.080;2023-07-29T03:28:57;2.55;;;1.25;;
76121;SDS011;70471;53.200;6.080;2023-07-29T03:33:48;2.15;;;1.70;;
76121;SDS011;70471;53.200;6.080;2023-07-29T03:38:39;1.15;;;1.02;;
76121;SDS011;70471;53.200;6.080;2023-07-29T03:43:33;1.67;;;1.00;;
76121;SDS011;70471;53.200;6.080;2023-07-29T03:48:24;1.60;;;1.10;;
76121;SDS011;70471;53.200;6.080;2023-07-29T03:53:15;1.15;;;0.70;;
76121;SDS011;70471;53.200;6.080;2023-07-29T03:58:07;3.08;;;1.13;;
76121;SDS011;70471;53.200;6.080;2023-07-29T04:03:00;1.27;;;0.80;;
76121;SDS011;70471;53.200;6.080;2023-07-29T04:07:51;2.63;;;0.95;;
76121;SDS011;70471;53.200;6.080;2023-07-29T04:12:44;1.60;;;0.95;;
76121;SDS011;70471;53.200;6.080;2023-07-29T04:17:36;1.35;;;0.75;;
76121;SDS011;70471;53.200;6.080;2023-07-29T04:22:29;2.55;;;1.50;;
76121;SDS011;70471;53.200;6.080;2023-07-29T04:27:20;1.15;;;0.60;;
76121;SDS011;70471;53.200;6.080;2023-07-29T04:32:12;1.10;;;0.80;;
76121;SDS011;70471;53.200;6.080;2023-07-29T04:37:03;1.20;;;0.70;;
76121;SDS011;70471;53.200;6.080;2023-07-29T04:41:56;2.65;;;1.23;;
76121;SDS011;70471;53.200;6.080;2023-07-29T04:46:48;1.10;;;0.80;;
76121;SDS011;70471;53.200;6.080;2023-07-29T04:51:39;1.30;;;0.70;;
76121;SDS011;70471;53.200;6.080;2023-07-29T04:56:31;1.05;;;0.73;;
76121;SDS011;70471;53.200;6.080;2023-07-29T05:01:23;1.10;;;0.80;;
76121;SDS011;70471;53.200;6.080;2023-07-29T05:06:15;1.50;;;0.90;;
76121;SDS011;70471;53.200;6.080;2023-07-29T05:11:06;1.63;;;0.95;;
76121;SDS011;70471;53.200;6.080;2023-07-29T05:15:58;2.17;;;0.80;;
76121;SDS011;70471;53.200;6.080;2023-07-29T05:20:51;1.05;;;0.50;;
76121;SDS011;70471;53.200;6.080;2023-07-29T05:25:42;2.10;;;0.85;;
76121;SDS011;70471;53.200;6.080;2023-07-29T05:35:27;1.15;;;0.70;;
76121;SDS011;70471;53.200;6.080;2023-07-29T05:45:11;1.85;;;0.90;;
76121;SDS011;70471;53.200;6.080;2023-07-29T05:50:03;0.90;;;0.68;;
76121;SDS011;70471;53.200;6.080;2023-07-29T05:54:55;1.83;;;0.90;;
76121;SDS011;70471;53.200;6.080;2023-07-29T06:04:39;4.53;;;1.27;;
76121;SDS011;70471;53.200;6.080;2023-07-29T06:14:22;4.32;;;0.82;;
76121;SDS011;70471;53.200;6.080;2023-07-29T06:19:14;2.17;;;0.75;;
76121;SDS011;70471;53.200;6.080;2023-07-29T06:24:06;1.65;;;0.80;;
76121;SDS011;70471;53.200;6.080;2023-07-29T06:28:57;3.40;;;1.00;;
76121;SDS011;70471;53.200;6.080;2023-07-29T06:33:49;6.78;;;2.03;;
76121;SDS011;70471;53.200;6.080;2023-07-29T06:38:42;2.70;;;0.80;;
76121;SDS011;70471;53.200;6.080;2023-07-29T06:43:33;3.63;;;0.85;;
76121;SDS011;70471;53.200;6.080;2023-07-29T06:53:16;3.20;;;1.10;;
76121;SDS011;70471;53.200;6.080;2023-07-29T06:58:09;2.75;;;0.80;;
76121;SDS011;70471;53.200;6.080;2023-07-29T07:03:01;3.20;;;0.90;;
76121;SDS011;70471;53.200;6.080;2023-07-29T07:07:52;3.63;;;1.17;;
76121;SDS011;70471;53.200;6.080;2023-07-29T07:17:36;2.83;;;1.33;;
76121;SDS011;70471;53.200;6.080;2023-07-29T07:22:28;1.90;;;0.90;;
76121;SDS011;70471;53.200;6.080;2023-07-29T07:27:19;3.00;;;0.90;;
76121;SDS011;70471;53.200;6.080;2023-07-29T07:32:11;2.85;;;0.90;;
76121;SDS011;70471;53.200;6.080;2023-07-29T07:37:04;1.00;;;0.70;;
76121;SDS011;70471;53.200;6.080;2023-07-29T07:41:55;1.20;;;0.80;;
76121;SDS011;70471;53.200;6.080;2023-07-29T07:46:47;1.55;;;0.80;;
76121;SDS011;70471;53.200;6.080;2023-07-29T07:56:31;2.05;;;0.60;;
76121;SDS011;70471;53.200;6.080;2023-07-29T08:01:22;1.00;;;0.60;;
76121;SDS011;70471;53.200;6.080;2023-07-29T08:11:05;1.40;;;0.98;;
76121;SDS011;70471;53.200;6.080;2023-07-29T08:20:52;4.00;;;0.80;;
76121;SDS011;70471;53.200;6.080;2023-07-29T08:25:49;1.55;;;0.70;;
76121;SDS011;70471;53.200;6.080;2023-07-29T08:30:42;1.73;;;0.80;;
76121;SDS011;70471;53.200;6.080;2023-07-29T08:40:27;1.60;;;0.68;;
76121;SDS011;70471;53.200;6.080;2023-07-29T08:45:21;0.93;;;0.60;;
76121;SDS011;70471;53.200;6.080;2023-07-29T08:50:12;2.20;;;0.95;;
76121;SDS011;70471;53.200;6.080;2023-07-29T08:55:07;1.10;;;0.70;;
76121;SDS011;70471;53.200;6.080;2023-07-29T08:59:58;0.85;;;0.57;;
76121;SDS011;70471;53.200;6.080;2023-07-29T09:04:53;0.80;;;0.63;;
76121;SDS011;70471;53.200;6.080;2023-07-29T09:09:44;1.25;;;0.63;;
76121;SDS011;70471;53.200;6.080;2023-07-29T09:14:37;0.90;;;0.47;;
76121;SDS011;70471;53.200;6.080;2023-07-29T09:19:28;1.00;;;0.70;;
76121;SDS011;70471;53.200;6.080;2023-07-29T09:24:24;1.67;;;0.52;;
76121;SDS011;70471;53.200;6.080;2023-07-29T09:29:21;2.00;;;0.63;;
76121;SDS011;70471;53.200;6.080;2023-07-29T09:34:15;0.50;;;0.50;;
76121;SDS011;70471;53.200;6.080;2023-07-29T09:39:10;2.05;;;0.80;;
76121;SDS011;70471;53.200;6.080;2023-07-29T09:44:03;1.00;;;0.55;;
76121;SDS011;70471;53.200;6.080;2023-07-29T09:48:55;1.75;;;0.50;;
76121;SDS011;70471;53.200;6.080;2023-07-29T09:53:50;1.75;;;0.70;;
76121;SDS011;70471;53.200;6.080;2023-07-29T09:58:42;1.73;;;0.40;;
76121;SDS011;70471;53.200;6.080;2023-07-29T10:03:35;0.95;;;0.40;;
76121;SDS011;70471;53.200;6.080;2023-07-29T10:08:27;0.98;;;0.60;;
76121;SDS011;70471;53.200;6.080;2023-07-29T10:13:22;0.90;;;0.30;;
76121;SDS011;70471;53.200;6.080;2023-07-29T10:18:15;0.88;;;0.57;;
76121;SDS011;70471;53.200;6.080;2023-07-29T10:23:07;1.13;;;0.60;;
76121;SDS011;70471;53.200;6.080;2023-07-29T10:28:02;1.38;;;0.57;;
76121;SDS011;70471;53.200;6.080;2023-07-29T10:32:58;0.95;;;0.50;;
76121;SDS011;70471;53.200;6.080;2023-07-29T10:37:52;0.90;;;0.32;;
76121;SDS011;70471;53.200;6.080;2023-07-29T10:42:58;1.40;;;0.50;;
76121;SDS011;70471;53.200;6.080;2023-07-29T10:47:51;2.20;;;0.63;;
76121;SDS011;70471;53.200;6.080;2023-07-29T10:52:46;0.60;;;0.43;;
76121;SDS011;70471;53.200;6.080;2023-07-29T10:57:40;0.60;;;0.40;;
76121;SDS011;70471;53.200;6.080;2023-07-29T11:02:36;0.88;;;0.63;;
76121;SDS011;70471;53.200;6.080;2023-07-29T11:07:30;1.17;;;0.32;;
76121;SDS011;70471;53.200;6.080;2023-07-29T11:12:38;0.82;;;0.32;;
76121;SDS011;70471;53.200;6.080;2023-07-29T11:17:35;0.82;;;0.50;;
76121;SDS011;70471;53.200;6.080;2023-07-29T11:22:29;0.68;;;0.60;;
76121;SDS011;70471;53.200;6.080;2023-07-29T11:27:21;0.95;;;0.45;;
76121;SDS011;70471;53.200;6.080;2023-07-29T11:32:14;1.15;;;0.60;;
76121;SDS011;70471;53.200;6.080;2023-07-29T11:37:08;0.40;;;0.40;;
76121;SDS011;70471;53.200;6.080;2023-07-29T11:42:02;0.68;;;0.50;;
76121;SDS011;70471;53.200;6.080;2023-07-29T11:46:54;0.40;;;0.40;;
76121;SDS011;70471;53.200;6.080;2023-07-29T11:51:46;1.27;;;0.60;;
76121;SDS011;70471;53.200;6.080;2023-07-29T11:56:38;2.63;;;0.77;;
76121;SDS011;70471;53.200;6.080;2023-07-29T12:01:29;1.17;;;0.80;;
76121;SDS011;70471;53.200;6.080;2023-07-29T12:06:22;3.03;;;0.70;;
76121;SDS011;70471;53.200;6.080;2023-07-29T12:11:15;1.60;;;0.80;;
76121;SDS011;70471;53.200;6.080;2023-07-29T12:16:07;2.22;;;0.68;;
76121;SDS011;70471;53.200;6.080;2023-07-29T12:20:59;2.30;;;0.90;;
76121;SDS011;70471;53.200;6.080;2023-07-29T12:25:51;2.10;;;0.68;;
76121;SDS011;70471;53.200;6.080;2023-07-29T12:30:44;3.03;;;0.90;;
76121;SDS011;70471;53.200;6.080;2023-07-29T12:35:36;0.82;;;0.60;;
76121;SDS011;70471;53.200;6.080;2023-07-29T12:40:27;0.50;;;0.50;;
76121;SDS011;70471;53.200;6.080;2023-07-29T12:45:19;2.97;;;0.70;;
76121;SDS011;70471;53.200;6.080;2023-07-29T12:50:14;1.17;;;0.45;;
76121;SDS011;70471;53.200;6.080;2023-07-29T12:55:05;0.80;;;0.60;;
76121;SDS011;70471;53.200;6.080;2023-07-29T13:00:03;0.40;;;0.40;;
76121;SDS011;70471;53.200;6.080;2023-07-29T13:04:55;1.60;;;0.50;;
76121;SDS011;70471;53.200;6.080;2023-07-29T13:09:48;2.30;;;0.60;;
76121;SDS011;70471;53.200;6.080;2023-07-29T13:14:39;0.82;;;0.60;;
76121;SDS011;70471;53.200;6.080;2023-07-29T13:19:31;2.00;;;0.82;;
76121;SDS011;70471;53.200;6.080;2023-07-29T13:24:22;0.70;;;0.50;;
76121;SDS011;70471;53.200;6.080;2023-07-29T13:29:15;1.30;;;0.88;;
76121;SDS011;70471;53.200;6.080;2023-07-29T13:34:06;0.82;;;0.60;;
76121;SDS011;70471;53.200;6.080;2023-07-29T13:38:58;0.93;;;0.40;;
76121;SDS011;70471;53.200;6.080;2023-07-29T13:43:49;1.27;;;0.70;;
76121;SDS011;70471;53.200;6.080;2023-07-29T13:48:42;1.83;;;0.63;;
76121;SDS011;70471;53.200;6.080;2023-07-29T13:53:34;0.85;;;0.63;;
76121;SDS011;70471;53.200;6.080;2023-07-29T13:58:25;1.23;;;0.63;;
76121;SDS011;70471;53.200;6.080;2023-07-29T14:03:16;1.10;;;0.75;;
76121;SDS011;70471;53.200;6.080;2023-07-29T14:08:09;0.95;;;0.82;;
76121;SDS011;70471;53.200;6.080;2023-07-29T14:13:01;1.15;;;0.40;;
76121;SDS011;70471;53.200;6.080;2023-07-29T14:17:52;1.00;;;0.40;;
76121;SDS011;70471;53.200;6.080;2023-07-29T14:22:43;0.50;;;0.35;;
76121;SDS011;70471;53.200;6.080;2023-07-29T14:27:36;0.60;;;0.50;;
76121;SDS011;70471;53.200;6.080;2023-07-29T14:32:28;1.40;;;0.40;;
76121;SDS011;70471;53.200;6.080;2023-07-29T14:37:20;0.60;;;0.50;;
76121;SDS011;70471;53.200;6.080;2023-07-29T14:42:12;1.00;;;0.50;;
76121;SDS011;70471;53.200;6.080;2023-07-29T14:47:07;1.88;;;0.70;;
76121;SDS011;70471;53.200;6.080;2023-07-29T14:51:58;0.77;;;0.57;;
76121;SDS011;70471;53.200;6.080;2023-07-29T14:56:50;0.75;;;0.45;;
76121;SDS011;70471;53.200;6.080;2023-07-29T15:01:41;0.73;;;0.50;;
76121;SDS011;70471;53.200;6.080;2023-07-29T15:06:34;0.60;;;0.50;;
76121;SDS011;70471;53.200;6.080;2023-07-29T15:11:25;0.65;;;0.50;;
76121;SDS011;70471;53.200;6.080;2023-07-29T15:16:17;1.70;;;0.38;;
76121;SDS011;70471;53.200;6.080;2023-07-29T15:21:08;1.10;;;0.60;;
76121;SDS011;70471;53.200;6.080;2023-07-29T15:26:01;0.85;;;0.40;;
76121;SDS011;70471;53.200;6.080;2023-07-29T15:30:53;0.60;;;0.45;;
76121;SDS011;70471;53.200;6.080;2023-07-29T15:35:44;0.63;;;0.45;;
76121;SDS011;70471;53.200;6.080;2023-07-29T15:40:37;1.33;;;0.60;;
76121;SDS011;70471;53.200;6.080;2023-07-29T15:45:30;0.68;;;0.55;;
76121;SDS011;70471;53.200;6.080;2023-07-29T15:50:21;0.43;;;0.40;;
76121;SDS011;70471;53.200;6.080;2023-07-29T15:55:13;0.57;;;0.50;;
76121;SDS011;70471;53.200;6.080;2023-07-29T16:00:05;0.40;;;0.40;;
76121;SDS011;70471;53.200;6.080;2023-07-29T16:04:58;1.23;;;0.60;;
76121;SDS011;70471;53.200;6.080;2023-07-29T16:09:50;0.40;;;0.38;;
76121;SDS011;70471;53.200;6.080;2023-07-29T16:14:41;0.63;;;0.50;;
76121;SDS011;70471;53.200;6.080;2023-07-29T16:19:33;0.90;;;0.50;;
76121;SDS011;70471;53.200;6.080;2023-07-29T16:24:44;0.60;;;0.32;;
76121;SDS011;70471;53.200;6.080;2023-07-29T16:29:36;1.10;;;0.50;;
76121;SDS011;70471;53.200;6.080;2023-07-29T16:34:27;0.82;;;0.52;;
76121;SDS011;70471;53.200;6.080;2023-07-29T16:39:19;0.43;;;0.30;;
76121;SDS011;70471;53.200;6.080;2023-07-29T16:44:12;0.98;;;0.60;;
76121;SDS011;70471;53.200;6.080;2023-07-29T16:49:03;1.02;;;0.40;;
76121;SDS011;70471;53.200;6.080;2023-07-29T16:53:55;1.02;;;0.40;;
76121;SDS011;70471;53.200;6.080;2023-07-29T16:58:46;0.98;;;0.40;;
76121;SDS011;70471;53.200;6.080;2023-07-29T17:03:39;1.27;;;0.60;;
76121;SDS011;70471;53.200;6.080;2023-07-29T17:08:30;0.85;;;0.43;;
76121;SDS011;70471;53.200;6.080;2023-07-29T17:13:22;1.25;;;0.60;;
76121;SDS011;70471;53.200;6.080;2023-07-29T17:18:13;0.32;;;0.20;;
76121;SDS011;70471;53.200;6.080;2023-07-29T17:23:06;0.60;;;0.40;;
76121;SDS011;70471;53.200;6.080;2023-07-29T17:27:58;0.40;;;0.38;;
76121;SDS011;70471;53.200;6.080;2023-07-29T17:32:49;1.10;;;0.40;;
76121;SDS011;70471;53.200;6.080;2023-07-29T17:37:41;0.55;;;0.25;;
76121;SDS011;70471;53.200;6.080;2023-07-29T17:42:33;0.90;;;0.30;;
76121;SDS011;70471;53.200;6.080;2023-07-29T17:47:25;0.50;;;0.47;;
76121;SDS011;70471;53.200;6.080;2023-07-29T17:52:16;0.50;;;0.40;;
76121;SDS011;70471;53.200;6.080;2023-07-29T17:57:08;0.73;;;0.20;;
76121;SDS011;70471;53.200;6.080;2023-07-29T18:02:01;0.60;;;0.20;;
76121;SDS011;70471;53.200;6.080;2023-07-29T18:06:52;0.65;;;0.30;;
76121;SDS011;70471;53.200;6.080;2023-07-29T18:11:43;0.50;;;0.40;;
76121;SDS011;70471;53.200;6.080;2023-07-29T18:16:35;0.70;;;0.40;;
76121;SDS011;70471;53.200;6.080;2023-07-29T18:21:29;0.75;;;0.50;;
76121;SDS011;70471;53.200;6.080;2023-07-29T18:26:21;0.65;;;0.47;;
76121;SDS011;70471;53.200;6.080;2023-07-29T18:31:13;0.52;;;0.40;;
76121;SDS011;70471;53.200;6.080;2023-07-29T18:36:05;0.73;;;0.50;;
76121;SDS011;70471;53.200;6.080;2023-07-29T18:40:58;1.75;;;0.60;;
76121;SDS011;70471;53.200;6.080;2023-07-29T18:45:49;2.05;;;0.70;;
76121;SDS011;70471;53.200;6.080;2023-07-29T18:50:42;1.00;;;0.55;;
76121;SDS011;70471;53.200;6.080;2023-07-29T18:55:34;0.77;;;0.40;;
76121;SDS011;70471;53.200;6.080;2023-07-29T19:00:26;1.27;;;0.55;;
76121;SDS011;70471;53.200;6.080;2023-07-29T19:05:18;0.75;;;0.60;;
76121;SDS011;70471;53.200;6.080;2023-07-29T19:10:10;0.65;;;0.38;;
76121;SDS011;70471;53.200;6.080;2023-07-29T19:15:01;2.17;;;0.68;;
76121;SDS011;70471;53.200;6.080;2023-07-29T19:19:54;0.90;;;0.73;;
76121;SDS011;70471;53.200;6.080;2023-07-29T19:24:46;0.68;;;0.50;;
76121;SDS011;70471;53.200;6.080;2023-07-29T19:29:37;1.13;;;0.50;;
76121;SDS011;70471;53.200;6.080;2023-07-29T19:34:28;0.88;;;0.60;;
76121;SDS011;70471;53.200;6.080;2023-07-29T19:39:21;1.63;;;0.47;;
76121;SDS011;70471;53.200;6.080;2023-07-29T19:44:13;2.03;;;0.63;;
76121;SDS011;70471;53.200;6.080;2023-07-29T19:49:05;0.70;;;0.50;;
76121;SDS011;70471;53.200;6.080;2023-07-29T19:53:56;1.02;;;0.43;;
76121;SDS011;70471;53.200;6.080;2023-07-29T19:58:49;1.27;;;0.60;;
76121;SDS011;70471;53.200;6.080;2023-07-29T20:03:41;2.40;;;0.70;;
76121;SDS011;70471;53.200;6.080;2023-07-29T20:08:32;1.50;;;1.27;;
76121;SDS011;70471;53.200;6.080;2023-07-29T20:13:24;2.17;;;0.70;;
76121;SDS011;70471;53.200;6.080;2023-07-29T20:18:18;1.25;;;0.90;;
76121;SDS011;70471;53.200;6.080;2023-07-29T20:23:11;1.25;;;0.82;;
76121;SDS011;70471;53.200;6.080;2023-07-29T20:28:02;1.38;;;0.80;;
76121;SDS011;70471;53.200;6.080;2023-07-29T20:32:54;1.08;;;0.85;;
76121;SDS011;70471;53.200;6.080;2023-07-29T20:37:47;1.60;;;0.65;;
76121;SDS011;70471;53.200;6.080;2023-07-29T20:42:38;1.92;;;1.25;;
76121;SDS011;70471;53.200;6.080;2023-07-29T20:47:30;3.47;;;1.30;;
76121;SDS011;70471;53.200;6.080;2023-07-29T20:52:21;1.83;;;0.90;;
76121;SDS011;70471;53.200;6.080;2023-07-29T20:57:14;1.35;;;0.75;;
76121;SDS011;70471;53.200;6.080;2023-07-29T21:02:05;2.58;;;1.02;;
76121;SDS011;70471;53.200;6.080;2023-07-29T21:06:57;2.78;;;1.10;;
76121;SDS011;70471;53.200;6.080;2023-07-29T21:11:48;2.33;;;1.02;;
76121;SDS011;70471;53.200;6.080;2023-07-29T21:16:42;1.70;;;1.00;;
76121;SDS011;70471;53.200;6.080;2023-07-29T21:21:34;1.85;;;0.90;;
76121;SDS011;70471;53.200;6.080;2023-07-29T21:26:25;1.98;;;1.02;;
76121;SDS011;70471;53.200;6.080;2023-07-29T21:31:16;3.28;;;1.48;;
76121;SDS011;70471;53.200;6.080;2023-07-29T21:36:09;4.60;;;1.27;;
76121;SDS011;70471;53.200;6.080;2023-07-29T21:41:01;2.63;;;1.08;;
76121;SDS011;70471;53.200;6.080;2023-07-29T21:45:52;2.45;;;1.30;;
76121;SDS011;70471;53.200;6.080;2023-07-29T21:50:44;3.55;;;1.15;;
76121;SDS011;70471;53.200;6.080;2023-07-29T21:55:39;2.75;;;1.30;;
76121;SDS011;70471;53.200;6.080;2023-07-29T22:00:31;6.72;;;1.35;;
76121;SDS011;70471;53.200;6.080;2023-07-29T22:05:23;6.13;;;1.80;;
76121;SDS011;70471;53.200;6.080;2023-07-29T22:10:14;5.10;;;1.30;;
76121;SDS011;70471;53.200;6.080;2023-07-29T22:15:08;1.90;;;1.25;;
76121;SDS011;70471;53.200;6.080;2023-07-29T22:20:00;3.22;;;1.08;;
76121;SDS011;70471;53.200;6.080;2023-07-29T22:24:52;3.17;;;1.10;;
76121;SDS011;70471;53.200;6.080;2023-07-29T22:29:44;6.38;;;2.08;;
76121;SDS011;70471;53.200;6.080;2023-07-29T22:34:36;3.28;;;1.60;;
76121;SDS011;70471;53.200;6.080;2023-07-29T22:39:28;3.55;;;1.50;;
76121;SDS011;70471;53.200;6.080;2023-07-29T22:44:19;3.33;;;1.55;;
76121;SDS011;70471;53.200;6.080;2023-07-29T22:49:11;4.80;;;1.50;;
76121;SDS011;70471;53.200;6.080;2023-07-29T22:54:04;4.53;;;1.80;;
76121;SDS011;70471;53.200;6.080;2023-07-29T22:58:55;5.40;;;1.60;;
76121;SDS011;70471;53.200;6.080;2023-07-29T23:03:49;4.82;;;1.60;;
76121;SDS011;70471;53.200;6.080;2023-07-29T23:08:40;7.38;;;1.77;;
76121;SDS011;70471;53.200;6.080;2023-07-29T23:13:33;4.22;;;1.60;;
76121;SDS011;70471;53.200;6.080;2023-07-29T23:18:24;6.78;;;1.77;;
76121;SDS011;70471;53.200;6.080;2023-07-29T23:23:16;4.72;;;1.50;;
76121;SDS011;70471;53.200;6.080;2023-07-29T23:28:07;10.15;;;1.92;;
76121;SDS011;70471;53.200;6.080;2023-07-29T23:33:00;6.85;;;1.58;;
76121;SDS011;70471;53.200;6.080;2023-07-29T23:37:51;5.63;;;1.73;;
76121;SDS011;70471;53.200;6.080;2023-07-29T23:42:43;6.43;;;2.08;;
76121;SDS011;70471;53.200;6.080;2023-07-29T23:47:34;6.00;;;1.90;;
76121;SDS011;70471;53.200;6.080;2023-07-29T23:52:27;6.35;;;1.80;;
76121;SDS011;70471;53.200;6.080;2023-07-29T23:57:18;6.72;;;2.33;;
